Time;durP1;ratioP1;P1;durP2;ratioP2;P2;SDS_P1;SDS_P2;PMS_P1;PMS_P2;Temp;Humidity;BMP_temperature;BMP_pressure;BME280_temperature;BME280_humidity;BME280_pressure;Samples;Min_cycle;Max_cycle;Signal;HPM_P1;HPM_P2
2022/04/16 00:00:11;;;;;;;15.48;11.07;;;9.10;99.90;;;;;;5077714;28;20028;-51
2022/04/16 00:02:38;;;;;;;11.60;7.95;;;8.90;99.90;;;;;;5079357;28;20077;-51
2022/04/16 00:05:05;;;;;;;9.98;5.90;;;8.80;99.90;;;;;;5077875;28;20020;-50
2022/04/16 00:07:31;;;;;;;5.82;3.55;;;8.70;99.90;;;;;;5077230;28;20632;-53
2022/04/16 00:09:56;;;;;;;8.65;3.47;;;8.70;99.90;;;;;;5077688;28;20028;-53
2022/04/16 00:12:22;;;;;;;4.47;2.80;;;8.60;99.90;;;;;;5076779;28;20517;-52
2022/04/16 00:14:49;;;;;;;5.85;3.08;;;8.40;99.90;;;;;;5077785;28;20082;-51
2022/04/16 00:17:16;;;;;;;6.28;3.35;;;8.30;99.90;;;;;;5079269;28;20448;-50
2022/04/16 00:19:43;;;;;;;4.38;3.00;;;8.20;99.90;;;;;;5078257;28;20036;-52
2022/04/16 00:22:12;;;;;;;6.55;3.60;;;8.20;99.90;;;;;;5076155;28;20034;-52
2022/04/16 00:24:44;;;;;;;6.53;3.55;;;8.00;99.90;;;;;;5074798;28;20020;-52
2022/04/16 00:27:10;;;;;;;5.40;3.22;;;7.90;99.90;;;;;;5077311;28;20066;-51
2022/04/16 00:29:37;;;;;;;6.03;3.17;;;7.80;99.90;;;;;;5080456;28;20444;-51
2022/04/16 00:32:06;;;;;;;7.40;4.23;;;7.80;99.90;;;;;;5077999;28;20040;-52
2022/04/16 00:34:32;;;;;;;6.63;3.63;;;7.80;99.90;;;;;;5071374;28;20715;-52
2022/04/16 00:36:58;;;;;;;6.82;3.60;;;7.80;99.90;;;;;;5068297;28;20028;-54
2022/04/16 00:39:24;;;;;;;8.20;4.32;;;7.80;99.90;;;;;;5068242;28;20360;-51
2022/04/16 00:41:50;;;;;;;9.45;5.20;;;7.80;99.90;;;;;;5068128;28;20024;-52
2022/04/16 00:44:19;;;;;;;5.97;3.25;;;7.70;99.90;;;;;;5066561;28;20032;-53
2022/04/16 00:46:45;;;;;;;6.55;3.88;;;7.60;99.90;;;;;;5068089;28;20036;-52
2022/04/16 00:49:11;;;;;;;6.75;3.80;;;7.60;99.90;;;;;;5068106;28;20071;-51
2022/04/16 00:51:36;;;;;;;6.53;3.90;;;7.60;99.90;;;;;;5066633;28;20060;-51
2022/04/16 00:54:03;;;;;;;8.25;4.75;;;7.70;99.90;;;;;;5065134;28;20060;-51
2022/04/16 00:56:28;;;;;;;7.20;4.32;;;7.70;99.90;;;;;;5068105;28;20030;-52
2022/04/16 00:58:54;;;;;;;9.95;5.20;;;7.70;99.90;;;;;;5068100;28;20502;-53
2022/04/16 01:01:19;;;;;;;10.02;5.53;;;7.70;99.90;;;;;;5068089;28;20383;-50
2022/04/16 01:03:47;;;;;;;9.18;5.45;;;7.60;99.90;;;;;;5066499;28;20019;-51
2022/04/16 01:06:15;;;;;;;11.18;5.65;;;7.50;99.90;;;;;;5048167;28;20032;-50
2022/04/16 01:08:47;;;;;;;10.10;5.53;;;7.60;99.90;;;;;;5047979;28;20124;-50
2022/04/16 01:11:14;;;;;;;7.18;4.82;;;7.60;99.90;;;;;;5047870;28;20033;-53
2022/04/16 01:13:40;;;;;;;10.43;6.22;;;7.50;99.90;;;;;;5048224;28;20488;-52
2022/04/16 01:16:06;;;;;;;12.20;6.05;;;7.40;99.90;;;;;;5047821;28;20051;-51
2022/04/16 01:18:33;;;;;;;9.85;6.68;;;7.30;99.90;;;;;;5047680;28;20060;-53
2022/04/16 01:21:01;;;;;;;10.07;5.72;;;7.30;99.90;;;;;;5047861;28;20095;-52
2022/04/16 01:26:51;;;;;;;8.55;5.68;;;7.10;99.90;;;;;;5047800;28;20128;-51
2022/04/16 01:29:17;;;;;;;;;;;7.00;99.90;;;;;;5058741;28;20531;-52
2022/04/16 01:31:43;;;;;;;9.90;5.75;;;7.00;99.90;;;;;;5067492;28;20651;-51
2022/04/16 01:34:08;;;;;;;10.27;6.18;;;7.00;99.90;;;;;;5065855;28;20039;-52
2022/04/16 01:36:34;;;;;;;12.43;6.05;;;7.00;99.90;;;;;;5067548;28;20024;-51
2022/04/16 01:39:01;;;;;;;8.82;5.30;;;7.10;99.90;;;;;;5067245;28;20452;-51
2022/04/16 01:41:29;;;;;;;8.80;5.57;;;7.10;99.90;;;;;;5067553;28;20052;-51
2022/04/16 01:43:56;;;;;;;10.18;5.57;;;7.10;99.90;;;;;;5067244;28;20048;-52
2022/04/16 01:46:21;;;;;;;8.73;5.15;;;7.10;99.90;;;;;;5067128;28;20075;-51
2022/04/16 01:48:53;;;;;;;7.22;4.78;;;7.10;99.90;;;;;;5067199;28;20024;-52
2022/04/16 01:51:23;;;;;;;8.18;5.00;;;7.00;99.90;;;;;;5067428;28;20043;-53
2022/04/16 01:53:49;;;;;;;8.68;5.22;;;7.00;99.90;;;;;;5067212;28;20055;-53
2022/04/16 01:56:15;;;;;;;10.05;5.45;;;6.90;99.90;;;;;;5064249;28;20044;-50
2022/04/16 01:58:43;;;;;;;9.35;5.50;;;6.80;99.90;;;;;;5067209;28;20642;-53
2022/04/16 02:01:10;;;;;;;8.52;5.68;;;6.70;99.90;;;;;;5067285;28;20021;-51
2022/04/16 02:03:36;;;;;;;8.13;5.57;;;6.70;99.90;;;;;;5067529;28;20039;-52
2022/04/16 02:06:05;;;;;;;7.97;5.68;;;6.60;99.90;;;;;;5067416;28;20781;-51
2022/04/16 02:08:31;;;;;;;9.15;5.35;;;6.60;99.90;;;;;;5065620;28;20092;-52
2022/04/16 02:10:57;;;;;;;8.55;5.00;;;6.50;99.90;;;;;;5065996;28;20133;-51
2022/04/16 02:13:23;;;;;;;10.07;5.38;;;6.50;99.90;;;;;;5066927;28;20083;-52
2022/04/16 02:15:49;;;;;;;8.32;5.18;;;6.40;99.90;;;;;;5067288;28;20036;-51
2022/04/16 02:18:14;;;;;;;8.73;5.72;;;6.40;99.90;;;;;;5069443;28;20028;-52
2022/04/16 02:20:43;;;;;;;10.18;5.70;;;6.50;99.90;;;;;;5070840;28;20038;-51
2022/04/16 02:23:10;;;;;;;7.28;4.38;;;6.40;99.90;;;;;;5070792;28;20017;-52
2022/04/16 02:25:36;;;;;;;7.85;4.75;;;6.20;99.90;;;;;;5053243;28;20418;-53
2022/04/16 02:28:01;;;;;;;6.30;4.43;;;6.20;99.90;;;;;;5069453;28;20025;-52
2022/04/16 02:30:30;;;;;;;8.82;4.38;;;6.20;99.90;;;;;;5069042;28;20085;-51
2022/04/16 02:32:56;;;;;;;8.20;4.30;;;6.10;99.90;;;;;;5070823;28;20433;-53
2022/04/16 02:35:23;;;;;;;8.82;4.00;;;6.20;99.90;;;;;;5069302;28;20504;-51
2022/04/16 02:37:48;;;;;;;6.55;3.67;;;6.10;99.90;;;;;;5052570;28;20034;-53
2022/04/16 02:40:15;;;;;;;6.95;3.35;;;6.00;99.90;;;;;;5070631;28;20054;-52
2022/04/16 02:42:42;;;;;;;4.65;3.13;;;6.00;99.90;;;;;;5070460;28;20023;-51
2022/04/16 02:47:56;;;;;;;5.90;3.75;;;6.00;99.90;;;;;;5072528;28;20074;-52
2022/04/16 02:50:24;;;;;;;5.90;3.45;;;6.00;99.90;;;;;;5070578;28;20415;-51
2022/04/16 02:52:51;;;;;;;5.95;3.53;;;6.00;99.90;;;;;;5070065;28;20131;-53
2022/04/16 02:55:17;;;;;;;5.10;3.35;;;6.00;99.90;;;;;;5067602;28;20583;-53
2022/04/16 02:57:43;;;;;;;5.85;3.35;;;5.90;99.90;;;;;;5070315;28;20032;-51
2022/04/16 03:00:10;;;;;;;4.97;3.10;;;5.80;99.90;;;;;;5068852;28;20036;-51
2022/04/16 03:02:37;;;;;;;7.07;3.88;;;5.80;99.90;;;;;;5070350;28;20090;-53
2022/04/16 03:05:06;;;;;;;5.57;3.42;;;5.70;99.90;;;;;;5069155;28;20127;-53
2022/04/16 03:07:33;;;;;;;7.03;3.63;;;5.80;99.90;;;;;;5069969;28;20049;-52
2022/04/16 03:09:59;;;;;;;6.07;4.25;;;5.80;99.90;;;;;;5070431;28;20017;-51
2022/04/16 03:12:24;;;;;;;8.15;3.97;;;5.70;99.90;;;;;;5070435;28;20109;-52
2022/04/16 03:17:35;;;;;;;6.57;3.75;;;5.70;99.90;;;;;;5070171;28;20043;-50
2022/04/16 03:20:06;;;;;;;8.70;4.40;;;5.50;99.90;;;;;;5068516;28;20031;-52
2022/04/16 03:22:37;;;;;;;10.82;4.90;;;5.50;99.90;;;;;;5068499;28;20033;-53
2022/04/16 03:25:09;;;;;;;7.55;4.32;;;5.40;99.90;;;;;;5068560;28;20071;-51
2022/04/16 03:27:36;;;;;;;7.50;4.88;;;5.40;99.90;;;;;;5070159;28;20426;-51
2022/04/16 03:30:04;;;;;;;7.38;4.90;;;5.40;99.90;;;;;;5067969;28;20070;-52
2022/04/16 03:32:29;;;;;;;;;;;5.30;99.90;;;;;;5069965;28;20032;-52
2022/04/16 03:34:56;;;;;;;6.70;4.47;;;5.40;99.90;;;;;;5069464;28;20390;-51
2022/04/16 03:37:24;;;;;;;8.30;4.88;;;5.40;99.90;;;;;;5052128;28;20027;-51
2022/04/16 03:39:50;;;;;;;8.18;5.00;;;5.30;99.90;;;;;;5069296;28;20036;-53
2022/04/16 03:42:18;;;;;;;8.63;5.18;;;5.30;99.90;;;;;;5069474;28;20476;-52
2022/04/16 03:44:44;;;;;;;6.32;4.28;;;5.30;99.90;;;;;;5069456;28;20068;-51
2022/04/16 03:47:11;;;;;;;6.78;4.28;;;5.20;99.90;;;;;;5068997;28;20059;-51
2022/04/16 03:49:37;;;;;;;9.30;4.90;;;5.20;99.90;;;;;;5069409;28;20036;-51
2022/04/16 03:52:04;;;;;;;6.20;4.00;;;5.10;99.90;;;;;;5069276;28;20450;-52
2022/04/16 04:00:01;;;;;;;9.00;4.57;;;5.20;99.90;;;;;;5059750;28;20177;-52
2022/04/16 04:02:31;;;;;;;7.90;5.10;;;5.20;99.90;;;;;;5058083;28;20021;-52
2022/04/16 04:04:57;;;;;;;9.90;5.90;;;5.20;99.90;;;;;;5065001;28;20809;-50
2022/04/16 04:07:23;;;;;;;9.52;6.30;;;5.20;99.90;;;;;;5059881;28;20048;-51
2022/04/16 04:09:49;;;;;;;8.73;5.45;;;5.20;99.90;;;;;;5056946;28;20029;-51
2022/04/16 04:12:16;;;;;;;8.45;5.40;;;5.20;99.90;;;;;;5059216;28;20103;-53
2022/04/16 04:14:44;;;;;;;7.53;4.68;;;5.10;99.90;;;;;;5060257;28;20021;-51
2022/04/16 04:17:10;;;;;;;8.55;4.38;;;5.10;99.90;;;;;;5074463;28;20098;-50
2022/04/16 04:19:40;;;;;;;6.43;4.22;;;5.10;99.90;;;;;;5077453;28;20091;-52
2022/04/16 04:22:09;;;;;;;7.85;4.22;;;5.10;99.90;;;;;;5076890;28;20064;-52
2022/04/16 04:24:37;;;;;;;7.45;4.50;;;5.10;99.90;;;;;;5065196;28;20032;-53
2022/04/16 04:27:03;;;;;;;5.85;3.50;;;5.10;99.90;;;;;;5065970;28;20040;-52
2022/04/16 04:29:29;;;;;;;7.43;4.15;;;5.00;99.90;;;;;;5060104;28;20028;-53
2022/04/16 04:31:56;;;;;;;8.23;4.60;;;4.90;99.90;;;;;;5075115;28;20036;-52
2022/04/16 04:34:22;;;;;;;6.65;4.72;;;4.90;99.90;;;;;;5079127;28;20033;-54
2022/04/16 04:36:48;;;;;;;5.90;4.40;;;4.90;99.90;;;;;;5073087;28;20503;-53
2022/04/16 04:39:14;;;;;;;9.32;5.55;;;5.00;99.90;;;;;;5076472;28;20085;-52
2022/04/16 04:41:42;;;;;;;10.82;5.13;;;4.90;99.90;;;;;;5071791;28;20016;-52
2022/04/16 04:44:13;;;;;;;8.60;5.43;;;4.90;99.90;;;;;;5078909;28;20539;-52
2022/04/16 04:46:40;;;;;;;14.00;7.85;;;4.90;99.90;;;;;;5071229;28;20119;-51
2022/04/16 04:49:09;;;;;;;13.35;7.60;;;5.00;99.90;;;;;;5077327;28;20098;-51
2022/04/16 04:51:36;;;;;;;10.93;7.00;;;5.00;99.90;;;;;;5075496;28;20495;-52
2022/04/16 04:54:04;;;;;;;12.85;6.60;;;5.00;99.90;;;;;;5075764;28;20495;-51
2022/04/16 04:56:30;;;;;;;10.18;6.45;;;5.00;99.90;;;;;;5074491;28;20054;-50
2022/04/16 04:58:57;;;;;;;9.48;5.95;;;5.00;99.90;;;;;;5075819;28;20028;-52
2022/04/16 05:01:23;;;;;;;9.15;5.90;;;5.00;99.90;;;;;;5077069;28;20028;-53
2022/04/16 05:03:49;;;;;;;9.43;6.40;;;5.10;99.90;;;;;;5078656;28;20095;-50
2022/04/16 05:06:14;;;;;;;14.35;7.13;;;5.10;99.90;;;;;;5064592;28;20099;-52
2022/04/16 05:08:40;;;;;;;10.90;6.90;;;5.10;99.90;;;;;;5050103;28;20033;-52
2022/04/16 05:11:05;;;;;;;9.35;6.40;;;5.10;99.90;;;;;;5062702;28;20025;-50
2022/04/16 05:13:31;;;;;;;10.50;6.53;;;5.00;99.90;;;;;;5067406;28;20082;-50
2022/04/16 05:15:57;;;;;;;13.52;7.75;;;5.10;99.90;;;;;;5068703;28;20040;-51
2022/04/16 05:18:22;;;;;;;12.02;7.43;;;5.00;99.90;;;;;;5068786;28;20063;-50
2022/04/16 05:20:48;;;;;;;12.50;7.85;;;5.00;99.90;;;;;;5068470;28;20480;-51
2022/04/16 05:23:14;;;;;;;11.55;7.20;;;5.00;99.90;;;;;;5068571;28;20103;-51
2022/04/16 05:25:40;;;;;;;13.15;7.97;;;5.10;99.90;;;;;;5068779;28;20023;-52
2022/04/16 05:28:05;;;;;;;12.27;7.65;;;5.10;99.90;;;;;;5068625;28;20392;-52
2022/04/16 05:30:38;;;;;;;12.68;7.70;;;5.10;99.90;;;;;;5068695;28;20489;-51
2022/04/16 05:33:16;;;;;;;14.95;8.75;;;5.10;99.90;;;;;;5068594;28;20389;-52
2022/04/16 05:35:42;;;;;;;12.77;8.20;;;5.10;99.90;;;;;;5068738;28;20025;-52
2022/04/16 05:38:08;;;;;;;16.40;9.37;;;5.00;99.90;;;;;;5068751;28;20048;-51
2022/04/16 05:40:33;;;;;;;13.57;9.35;;;4.90;99.90;;;;;;5068480;28;20590;-50
2022/04/16 05:42:59;;;;;;;15.90;9.45;;;5.00;99.90;;;;;;5068466;28;20025;-53
2022/04/16 05:45:25;;;;;;;15.25;9.90;;;5.00;99.90;;;;;;5068520;28;20044;-52
2022/04/16 05:47:50;;;;;;;15.90;10.00;;;5.00;99.90;;;;;;5068253;28;20063;-52
2022/04/16 05:50:16;;;;;;;13.82;8.98;;;5.00;99.90;;;;;;5068233;28;20476;-53
2022/04/16 05:52:42;;;;;;;16.75;10.02;;;5.00;99.90;;;;;;5069736;28;20064;-50
2022/04/16 05:55:09;;;;;;;16.30;10.75;;;5.00;99.90;;;;;;5072196;28;20036;-51
2022/04/16 05:57:35;;;;;;;15.68;10.85;;;5.00;99.90;;;;;;5072319;28;20050;-52
2022/04/16 06:00:00;;;;;;;17.10;10.98;;;5.10;99.90;;;;;;5072069;28;20028;-52
2022/04/16 06:02:26;;;;;;;16.13;10.60;;;5.00;99.90;;;;;;5072094;28;20387;-50
2022/04/16 06:04:52;;;;;;;17.83;10.38;;;5.00;99.90;;;;;;5066852;28;20484;-52
2022/04/16 06:07:18;;;;;;;14.82;10.27;;;5.00;99.90;;;;;;5075634;28;20053;-51
2022/04/16 06:09:44;;;;;;;21.05;11.63;;;5.00;99.90;;;;;;5072141;28;20487;-52
2022/04/16 06:12:09;;;;;;;17.27;11.52;;;5.00;99.90;;;;;;5072098;28;20437;-52
2022/04/16 06:14:35;;;;;;;18.33;10.77;;;5.00;99.90;;;;;;5071293;28;20468;-50
2022/04/16 06:17:01;;;;;;;18.15;10.82;;;5.10;99.90;;;;;;5081745;28;20024;-52
2022/04/16 06:19:27;;;;;;;19.63;10.63;;;5.00;99.90;;;;;;5081159;28;20027;-52
2022/04/16 06:21:53;;;;;;;20.08;11.15;;;5.00;99.90;;;;;;5079797;28;20020;-51
2022/04/16 06:24:19;;;;;;;16.08;11.30;;;5.00;99.90;;;;;;5082102;28;20510;-53
2022/04/16 06:26:47;;;;;;;19.25;12.00;;;5.00;99.90;;;;;;5081608;28;20036;-52
2022/04/16 06:29:14;;;;;;;18.88;12.52;;;5.00;99.90;;;;;;5079214;28;20035;-52
2022/04/16 06:31:40;;;;;;;20.50;11.65;;;5.00;99.90;;;;;;5059997;28;20125;-53
2022/04/16 06:34:05;;;;;;;19.75;12.07;;;5.00;99.90;;;;;;5061706;28;20037;-52
2022/04/16 06:36:31;;;;;;;22.25;12.48;;;4.90;99.90;;;;;;5060066;28;20099;-54
2022/04/16 06:38:57;;;;;;;19.40;12.82;;;4.90;99.90;;;;;;5072930;28;20039;-52
2022/04/16 06:41:23;;;;;;;20.75;13.23;;;5.00;99.90;;;;;;5058322;28;20029;-51
2022/04/16 06:43:48;;;;;;;21.80;13.60;;;4.90;99.90;;;;;;5064642;28;20027;-52
2022/04/16 06:46:14;;;;;;;20.58;13.55;;;5.00;99.90;;;;;;5061143;28;20077;-52
2022/04/16 06:48:40;;;;;;;22.42;14.10;;;5.00;99.90;;;;;;5059321;28;20064;-51
2022/04/16 06:51:05;;;;;;;19.95;13.77;;;5.00;99.90;;;;;;5061393;28;20202;-52
2022/04/16 06:53:31;;;;;;;22.20;14.70;;;5.00;99.90;;;;;;5077818;28;20040;-51
2022/04/16 06:56:00;;;;;;;24.70;14.15;;;5.00;99.90;;;;;;5075780;28;20052;-51
2022/04/16 06:58:28;;;;;;;25.38;15.55;;;5.00;99.90;;;;;;5073065;28;20097;-51
2022/04/16 07:00:58;;;;;;;24.02;15.10;;;5.00;99.90;;;;;;5066705;28;20029;-52
2022/04/16 07:03:24;;;;;;;33.03;17.20;;;5.00;99.90;;;;;;5079060;28;20060;-52
2022/04/16 07:05:49;;;;;;;24.17;15.95;;;5.10;99.90;;;;;;5070637;28;20052;-51
2022/04/16 07:08:15;;;;;;;25.98;15.65;;;5.20;99.90;;;;;;5066540;28;20408;-52
2022/04/16 07:10:41;;;;;;;26.75;16.98;;;5.20;99.90;;;;;;5067984;28;20107;-52
2022/04/16 07:13:07;;;;;;;22.27;14.10;;;5.10;99.90;;;;;;5077095;28;20043;-52
2022/04/16 07:15:33;;;;;;;25.08;15.85;;;5.20;99.90;;;;;;5074445;28;20222;-51
2022/04/16 07:17:59;;;;;;;23.87;14.97;;;5.20;99.90;;;;;;5066915;28;20051;-51
2022/04/16 07:20:26;;;;;;;24.42;15.93;;;5.20;99.90;;;;;;5062642;28;20048;-51
2022/04/16 07:22:51;;;;;;;23.08;15.20;;;5.20;99.90;;;;;;5073039;28;20028;-52
2022/04/16 07:25:17;;;;;;;29.05;17.25;;;5.20;99.90;;;;;;5073154;28;20092;-52
2022/04/16 07:27:43;;;;;;;34.67;19.00;;;5.10;99.90;;;;;;5079011;28;20495;-52
2022/04/16 07:30:10;;;;;;;28.95;18.10;;;5.20;99.90;;;;;;5080489;28;20028;-51
2022/04/16 07:32:36;;;;;;;26.63;16.65;;;5.20;99.90;;;;;;5079914;28;20033;-52
2022/04/16 07:35:02;;;;;;;29.30;17.85;;;5.20;99.90;;;;;;5070338;28;20029;-52
2022/04/16 07:37:28;;;;;;;27.48;18.10;;;5.20;99.90;;;;;;5054196;28;20059;-52
2022/04/16 07:39:53;;;;;;;31.58;18.33;;;5.30;99.90;;;;;;5050432;28;20485;-52
2022/04/16 07:42:19;;;;;;;27.88;17.80;;;5.30;99.90;;;;;;5068674;28;20032;-50
2022/04/16 07:44:45;;;;;;;29.55;19.35;;;5.30;99.90;;;;;;5068249;28;20024;-51
2022/04/16 07:47:11;;;;;;;27.98;17.92;;;5.20;99.90;;;;;;5067729;28;20025;-52
2022/04/16 07:49:36;;;;;;;27.65;18.65;;;5.20;99.90;;;;;;5068594;28;20035;-52
2022/04/16 07:52:03;;;;;;;27.83;16.90;;;5.30;99.90;;;;;;5075225;28;20035;-52
2022/04/16 07:54:29;;;;;;;26.88;17.40;;;5.30;99.90;;;;;;5090340;28;20486;-52
2022/04/16 07:56:54;;;;;;;27.85;17.50;;;5.40;99.90;;;;;;5079007;28;20024;-51
2022/04/16 07:59:20;;;;;;;27.80;18.05;;;5.50;99.90;;;;;;5078315;28;20038;-51
2022/04/16 08:01:46;;;;;;;32.40;18.67;;;5.60;99.90;;;;;;5079596;28;20028;-50
2022/04/16 08:04:11;;;;;;;30.92;18.60;;;5.60;99.90;;;;;;5078029;28;20025;-51
2022/04/16 08:06:37;;;;;;;25.35;16.75;;;5.60;99.90;;;;;;5073351;28;20563;-52
2022/04/16 08:09:03;;;;;;;26.45;18.85;;;5.60;99.90;;;;;;5079551;28;20033;-52
2022/04/16 08:11:33;;;;;;;31.83;21.53;;;5.50;99.90;;;;;;5074777;28;20028;-51
2022/04/16 08:13:59;;;;;;;34.15;20.85;;;5.50;99.90;;;;;;5080365;28;20040;-50
2022/04/16 08:16:25;;;;;;;31.40;22.20;;;5.40;99.90;;;;;;5074359;28;20697;-51
2022/04/16 08:18:51;;;;;;;31.95;22.50;;;5.50;99.90;;;;;;5080290;28;20523;-50
2022/04/16 08:21:17;;;;;;;30.75;21.67;;;5.40;99.90;;;;;;5074970;28;20021;-50
2022/04/16 08:23:55;;;;;;;27.58;19.80;;;5.30;99.90;;;;;;5069292;28;20547;-50
2022/04/16 08:26:24;;;;;;;31.38;21.25;;;5.30;99.90;;;;;;5063612;28;20023;-51
2022/04/16 08:28:51;;;;;;;29.30;22.05;;;5.20;99.90;;;;;;5077486;28;20052;-50
2022/04/16 08:31:17;;;;;;;31.38;22.77;;;5.20;99.90;;;;;;5076619;28;20023;-51
2022/04/16 08:33:42;;;;;;;29.65;22.05;;;5.20;99.90;;;;;;5084335;28;20024;-50
2022/04/16 08:36:08;;;;;;;32.85;23.48;;;5.20;99.90;;;;;;5066927;28;20075;-52
2022/04/16 08:38:34;;;;;;;32.90;23.35;;;5.20;99.90;;;;;;5050278;28;20522;-52
2022/04/16 08:41:01;;;;;;;31.23;23.70;;;5.20;99.90;;;;;;5057594;28;20021;-51
2022/04/16 08:43:27;;;;;;;32.28;24.65;;;5.20;99.90;;;;;;5058657;28;20384;-56
2022/04/16 08:45:55;;;;;;;31.80;23.53;;;5.10;99.90;;;;;;5068225;28;20031;-52
2022/04/16 08:48:21;;;;;;;34.53;24.42;;;5.20;99.90;;;;;;5068855;28;20143;-52
2022/04/16 08:50:47;;;;;;;35.13;24.60;;;5.30;99.90;;;;;;5065985;28;20124;-51
2022/04/16 08:53:14;;;;;;;32.05;23.25;;;5.30;99.90;;;;;;5070747;28;20048;-51
2022/04/16 08:55:40;;;;;;;31.73;22.30;;;5.30;99.90;;;;;;5052461;28;20496;-51
2022/04/16 08:58:06;;;;;;;36.85;25.35;;;5.30;99.90;;;;;;5074962;28;20098;-51
2022/04/16 09:00:32;;;;;;;37.65;25.90;;;5.40;99.90;;;;;;5080728;28;20383;-50
2022/04/16 09:02:59;;;;;;;39.53;25.02;;;5.40;99.90;;;;;;5086088;28;20031;-52
2022/04/16 09:05:26;;;;;;;43.15;27.17;;;5.60;99.90;;;;;;5080435;28;20057;-51
2022/04/16 09:07:55;;;;;;;43.35;24.73;;;5.70;99.90;;;;;;5069810;28;20044;-52
2022/04/16 09:10:24;;;;;;;30.70;22.70;;;5.70;99.90;;;;;;5079061;28;20119;-51
2022/04/16 09:12:51;;;;;;;29.95;20.65;;;5.80;99.90;;;;;;5078416;28;20043;-51
2022/04/16 09:15:18;;;;;;;31.55;21.60;;;5.90;99.90;;;;;;5078952;28;20036;-50
2022/04/16 09:17:43;;;;;;;26.50;19.48;;;6.10;99.90;;;;;;5077408;28;20024;-51
2022/04/16 09:20:11;;;;;;;26.50;17.95;;;6.00;99.90;;;;;;5077688;28;20376;-51
2022/04/16 09:22:38;;;;;;;25.52;18.27;;;6.20;99.90;;;;;;5077833;28;20044;-50
2022/04/16 09:25:13;;;;;;;17.13;13.45;;;6.20;99.90;;;;;;5079396;28;20032;-50
2022/04/16 09:27:46;;;;;;;17.08;13.85;;;6.00;99.90;;;;;;5078104;28;20479;-50
2022/04/16 09:30:13;;;;;;;19.17;13.05;;;5.80;99.90;;;;;;5075960;28;20127;-50
2022/04/16 09:32:44;;;;;;;20.55;12.68;;;5.80;99.90;;;;;;5075744;28;20043;-51
2022/04/16 09:35:35;;;;;;;15.85;11.63;;;5.70;99.90;;;;;;5075368;28;20354;-52
2022/04/16 09:38:03;;;;;;;18.65;12.73;;;5.60;99.90;;;;;;5076933;28;20052;-51
2022/04/16 09:40:31;;;;;;;16.88;13.27;;;5.60;99.90;;;;;;5071868;28;20033;-51
2022/04/16 09:43:05;;;;;;;22.77;15.00;;;5.70;99.90;;;;;;5060758;28;20070;-51
2022/04/16 09:45:32;;;;;;;20.23;14.82;;;5.70;99.90;;;;;;5066278;28;20061;-51
2022/04/16 09:47:59;;;;;;;22.20;14.45;;;5.80;99.90;;;;;;5077876;28;20020;-51
2022/04/16 09:50:32;;;;;;;25.27;15.25;;;5.80;99.90;;;;;;5074656;28;20024;-52
2022/04/16 09:53:02;;;;;;;19.10;14.00;;;5.90;99.90;;;;;;5061336;28;20090;-51
2022/04/16 09:55:28;;;;;;;22.65;14.88;;;5.90;99.90;;;;;;5058082;28;20147;-54
2022/04/16 09:58:03;;;;;;;21.50;15.18;;;6.00;99.90;;;;;;5055981;28;20127;-49
2022/04/16 10:00:34;;;;;;;19.67;13.60;;;6.10;99.90;;;;;;5054860;28;20673;-51
2022/04/16 10:03:00;;;;;;;19.48;13.95;;;6.30;99.90;;;;;;5065727;28;20030;-50
2022/04/16 10:05:26;;;;;;;18.77;13.73;;;6.30;99.90;;;;;;5057742;28;20029;-50
2022/04/16 10:07:52;;;;;;;16.85;12.48;;;6.30;99.90;;;;;;5057595;28;20052;-50
2022/04/16 10:10:31;;;;;;;13.48;10.63;;;6.40;99.90;;;;;;5066623;28;20039;-51
2022/04/16 10:13:07;;;;;;;14.68;10.18;;;6.40;99.90;;;;;;5068004;28;20463;-51
2022/04/16 10:16:01;;;;;;;11.13;9.05;;;6.30;99.90;;;;;;5067094;28;20033;-52
2022/04/16 10:18:27;;;;;;;13.05;8.93;;;6.20;99.90;;;;;;5048165;28;20029;-59
2022/04/16 10:20:55;;;;;;;10.90;9.17;;;6.30;99.90;;;;;;5047812;28;20404;-51
2022/04/16 10:23:29;;;;;;;14.02;8.80;;;6.40;99.90;;;;;;5058695;28;20020;-52
2022/04/16 10:26:09;;;;;;;11.77;8.52;;;6.50;99.90;;;;;;5088473;28;20121;-51
2022/04/16 10:28:55;;;;;;;12.10;9.25;;;6.90;99.90;;;;;;5088464;28;20521;-50
2022/04/16 10:31:30;;;;;;;13.55;8.43;;;7.80;99.90;;;;;;5077969;28;20024;-53
2022/04/16 10:34:04;;;;;;;13.90;7.20;;;8.80;99.90;;;;;;5079277;28;20028;-52
2022/04/16 10:36:40;;;;;;;10.30;5.78;;;9.20;99.90;;;;;;5067971;28;20024;-51
2022/04/16 10:39:23;;;;;;;11.20;6.22;;;8.90;99.90;;;;;;5068503;28;20021;-54
2022/04/16 10:42:00;;;;;;;49.15;31.83;;;8.70;99.90;;;;;;5071285;28;20078;-52
2022/04/16 10:44:27;;;;;;;15.93;6.88;;;8.60;99.90;;;;;;5071612;28;20032;-51
2022/04/16 10:46:54;;;;;;;10.32;6.13;;;8.50;99.90;;;;;;5068881;28;20032;-51
2022/04/16 10:49:23;;;;;;;;;;;8.20;99.90;;;;;;5069941;28;20021;-52
2022/04/16 10:51:56;;;;;;;10.05;6.43;;;8.30;99.90;;;;;;5076749;28;19999;-51
2022/04/16 10:54:34;;;;;;;8.10;5.35;;;8.20;99.90;;;;;;5080050;28;20472;-51
2022/04/16 10:57:00;;;;;;;8.75;5.65;;;8.50;99.90;;;;;;5089528;28;20081;-51
2022/04/16 10:59:40;;;;;;;7.25;4.68;;;9.10;99.90;;;;;;5089627;28;20097;-52
2022/04/16 11:02:23;;;;;;;6.68;4.13;;;9.80;99.90;;;;;;5090228;28;20051;-50
2022/04/16 11:05:15;;;;;;;6.28;3.40;;;10.20;99.90;;;;;;5088561;28;20059;-52
2022/04/16 11:07:42;;;;;;;7.63;4.00;;;10.20;99.90;;;;;;5085670;28;20054;-51
2022/04/16 11:10:11;;;;;;;7.22;3.75;;;10.10;99.90;;;;;;5090367;28;20026;-52
2022/04/16 11:12:39;;;;;;;6.22;3.25;;;9.90;99.90;;;;;;5090013;28;20165;-52
2022/04/16 11:15:12;;;;;;;6.50;2.97;;;9.90;99.90;;;;;;5089951;28;20024;-52
2022/04/16 11:17:38;;;;;;;4.60;2.42;;;10.10;99.90;;;;;;5079235;28;20047;-50
2022/04/16 11:20:06;;;;;;;5.03;2.45;;;10.40;99.90;;;;;;5069182;28;20578;-52
2022/04/16 11:22:32;;;;;;;7.00;3.38;;;10.40;99.90;;;;;;5070097;28;20029;-53
2022/04/16 11:24:59;;;;;;;4.70;2.05;;;10.20;99.90;;;;;;5070293;28;20036;-51
2022/04/16 11:36:11;;;;;;;5.75;2.83;;;9.90;99.40;;;;;;5070468;28;20031;-52
2022/04/16 11:38:41;;;;;;;6.63;2.63;;;10.00;98.90;;;;;;5070272;28;20024;-50
2022/04/16 11:41:09;;;;;;;5.90;2.40;;;10.20;95.30;;;;;;5068216;28;20029;-52
2022/04/16 11:43:38;;;;;;;7.20;2.80;;;10.10;98.20;;;;;;5070085;28;20093;-52
2022/04/16 11:46:11;;;;;;;5.50;2.33;;;10.10;95.30;;;;;;5070186;28;20024;-53
2022/04/16 11:48:42;;;;;;;6.15;2.60;;;9.90;96.30;;;;;;5068750;28;20033;-51
2022/04/16 11:51:11;;;;;;;4.07;2.03;;;10.40;96.20;;;;;;5068128;28;20051;-52
2022/04/16 11:53:50;;;;;;;6.40;1.70;;;11.10;98.00;;;;;;5070040;28;20078;-52
2022/04/16 11:56:20;;;;;;;18.52;8.20;;;11.30;93.40;;;;;;5070222;28;20523;-51
2022/04/16 11:58:50;;;;;;;15.38;7.15;;;11.60;93.70;;;;;;5069998;28;20051;-51
2022/04/16 12:01:20;;;;;;;4.70;2.05;;;11.70;93.80;;;;;;5069749;28;20028;-50
2022/04/16 12:03:45;;;;;;;7.55;3.03;;;11.70;90.90;;;;;;5069793;28;20039;-52
2022/04/16 12:06:13;;;;;;;5.38;2.08;;;11.80;89.90;;;;;;5069501;28;20483;-51
2022/04/16 12:08:42;;;;;;;6.25;1.73;;;12.20;88.10;;;;;;5069536;28;20044;-51
2022/04/16 12:11:09;;;;;;;5.10;1.73;;;12.30;89.60;;;;;;5069461;28;20037;-52
2022/04/16 12:13:36;;;;;;;4.88;2.22;;;12.30;84.60;;;;;;5069255;28;20092;-50
2022/04/16 12:16:12;;;;;;;5.30;2.67;;;11.90;83.10;;;;;;5069613;28;20044;-51
2022/04/16 12:18:46;;;;;;;5.88;2.50;;;11.90;82.60;;;;;;5067824;28;20094;-51
2022/04/16 12:21:14;;;;;;;5.43;2.40;;;12.40;87.70;;;;;;5069242;28;20043;-51
2022/04/16 12:23:41;;;;;;;3.72;1.58;;;13.20;82.40;;;;;;5069277;28;20043;-52
2022/04/16 12:26:12;;;;;;;4.15;1.52;;;13.40;79.60;;;;;;5069366;28;20029;-51
2022/04/16 12:28:39;;;;;;;3.53;1.85;;;13.70;78.70;;;;;;5069403;28;20264;-50
2022/04/16 12:31:05;;;;;;;;;;;14.10;78.10;;;;;;5069935;28;20507;-51
2022/04/16 12:33:30;;;;;;;3.42;1.65;;;13.80;75.40;;;;;;5069164;28;19937;-52
2022/04/16 12:35:58;;;;;;;7.18;2.05;;;13.60;74.70;;;;;;5069384;28;20017;-51
2022/04/16 12:38:25;;;;;;;4.80;2.08;;;13.10;73.40;;;;;;5069391;28;20046;-51
2022/04/16 12:40:52;;;;;;;4.80;2.17;;;12.30;76.20;;;;;;5068945;28;20095;-52
2022/04/16 12:43:18;;;;;;;7.40;2.20;;;11.90;74.80;;;;;;5069029;28;20040;-52
2022/04/16 12:45:44;;;;;;;4.80;2.00;;;12.20;80.30;;;;;;5069142;28;20032;-50
2022/04/16 12:48:09;;;;;;;5.22;2.38;;;12.30;78.60;;;;;;5069067;28;20021;-51
2022/04/16 12:50:36;;;;;;;4.22;1.85;;;12.70;77.80;;;;;;5067696;28;20423;-51
2022/04/16 12:53:04;;;;;;;3.67;1.55;;;12.80;73.10;;;;;;5068932;28;20185;-53
2022/04/16 12:55:30;;;;;;;4.90;1.73;;;13.10;71.80;;;;;;5068632;28;20070;-52
2022/04/16 12:57:56;;;;;;;5.20;2.00;;;13.50;72.60;;;;;;5067604;28;20370;-51
2022/04/16 13:00:22;;;;;;;6.57;2.60;;;13.90;73.80;;;;;;5067576;28;20036;-51
2022/04/16 13:05:29;;;;;;;3.38;1.98;;;14.40;66.10;;;;;;5084941;22;20474;-51
2022/04/16 13:07:58;;;;;;;3.08;1.48;;;14.50;64.60;;;;;;5048483;28;20106;-52
2022/04/16 13:10:23;;;;;;;3.22;1.63;;;14.30;63.20;;;;;;5030550;28;20029;-52
2022/04/16 13:12:49;;;;;;;3.38;1.67;;;14.60;64.50;;;;;;5048492;28;20400;-51
2022/04/16 13:15:15;;;;;;;4.70;2.58;;;14.80;65.40;;;;;;5048654;28;20057;-51